Time;durP1;ratioP1;P1;durP2;ratioP2;P2;SDS_P1;SDS_P2;PMS_P1;PMS_P2;Temp;Humidity;BMP_temperature;BMP_pressure;BME280_temperature;BME280_humidity;BME280_pressure;Samples;Min_cycle;Max_cycle;Signal;HPM_P1;HPM_P2
2022/04/28 00:02:26;;;;;;;9.05;6.30;;;;;;;5.31;100.00;96610.47;5011261;28;24420;-73
2022/04/28 00:04:52;;;;;;;8.65;6.65;;;;;;;5.30;100.00;96611.38;5011357;28;24430;-73
2022/04/28 00:07:20;;;;;;;8.20;6.78;;;;;;;5.29;100.00;96613.97;5011484;28;24635;-73
2022/04/28 00:09:47;;;;;;;9.32;6.32;;;;;;;5.26;100.00;96609.75;5011558;28;24412;-73
2022/04/28 00:12:13;;;;;;;6.90;6.03;;;;;;;5.28;100.00;96609.72;5011242;28;24420;-73
2022/04/28 00:14:42;;;;;;;7.10;6.37;;;;;;;5.27;100.00;96614.03;5011342;28;24424;-73
2022/04/28 00:17:09;;;;;;;6.00;5.40;;;;;;;5.32;100.00;96617.28;5011088;28;24532;-73
2022/04/28 00:19:36;;;;;;;7.18;6.05;;;;;;;5.28;100.00;96615.69;5011568;28;24451;-73
2022/04/28 00:22:02;;;;;;;12.32;6.22;;;;;;;5.19;100.00;96628.81;5010855;28;24412;-73
2022/04/28 00:24:30;;;;;;;7.75;6.60;;;;;;;5.13;100.00;96615.28;5011384;28;24432;-73
2022/04/28 00:26:56;;;;;;;8.25;6.53;;;;;;;5.11;100.00;96623.03;5010837;28;24993;-73
2022/04/28 00:29:23;;;;;;;7.13;6.30;;;;;;;5.09;100.00;96623.06;5011142;28;24458;-73
2022/04/28 00:31:49;;;;;;;9.27;6.50;;;;;;;5.09;100.00;96619.66;5010770;28;24424;-73
2022/04/28 00:34:16;;;;;;;11.00;6.70;;;;;;;5.10;100.00;96618.78;5010954;28;24427;-73
2022/04/28 00:36:42;;;;;;;8.50;7.03;;;;;;;5.14;100.00;96620.38;5010622;28;24790;-73
2022/04/28 00:39:09;;;;;;;7.33;6.63;;;;;;;5.16;100.00;96612.66;5010474;28;24450;-73
2022/04/28 00:41:37;;;;;;;7.70;6.75;;;;;;;5.16;100.00;96612.66;5010820;28;24424;-73
2022/04/28 00:44:06;;;;;;;8.75;6.47;;;;;;;5.16;100.00;96613.47;5010757;28;24435;-73
2022/04/28 00:46:33;;;;;;;7.35;6.30;;;;;;;5.11;100.00;96612.75;5010648;28;24424;-74
2022/04/28 00:51:43;;;;;;;8.57;6.40;;;;;;;5.15;100.00;96614.34;5010589;28;24415;-73
2022/04/28 00:54:10;;;;;;;6.43;5.82;;;;;;;5.15;100.00;96614.34;5010815;28;24428;-73
2022/04/28 00:56:38;;;;;;;6.60;5.77;;;;;;;5.12;100.00;96605.88;5010646;28;24482;-74
2022/04/28 00:59:04;;;;;;;9.50;6.00;;;;;;;5.11;100.00;96617.88;5010704;28;24429;-73
2022/04/28 01:01:31;;;;;;;6.43;5.57;;;;;;;5.14;100.00;96611.84;5010477;28;24444;-73
2022/04/28 01:03:58;;;;;;;6.20;5.60;;;;;;;5.16;100.00;96617.78;5010883;28;24478;-73
2022/04/28 01:06:25;;;;;;;9.75;5.20;;;;;;;5.19;100.00;96608.25;5010764;28;24822;-74
2022/04/28 01:08:51;;;;;;;8.70;6.20;;;;;;;5.18;100.00;96610.84;5010737;28;24428;-73
2022/04/28 01:11:18;;;;;;;6.27;5.27;;;;;;;5.14;100.00;96616.97;5010521;28;24996;-73
2022/04/28 01:13:46;;;;;;;5.40;4.90;;;;;;;5.06;100.00;96623.16;5010378;28;24431;-73
2022/04/28 01:16:13;;;;;;;5.93;5.40;;;;;;;5.11;100.00;96617.88;5024609;22;25078;-71
2022/04/28 01:18:40;;;;;;;8.77;5.57;;;;;;;4.94;100.00;96612.38;5010672;28;24436;-71
2022/04/28 01:21:08;;;;;;;6.78;4.90;;;;;;;4.81;100.00;96615.25;5010571;28;24447;-71
2022/04/28 01:23:36;;;;;;;5.32;4.72;;;;;;;4.64;100.00;96619.19;5010382;28;24475;-71
2022/04/28 01:26:03;;;;;;;4.78;4.38;;;;;;;4.49;100.00;96616.13;5010434;28;24478;-70
2022/04/28 01:28:30;;;;;;;7.72;4.78;;;;;;;4.43;100.00;96620.56;5010883;28;24794;-70
2022/04/28 01:30:57;;;;;;;7.40;4.72;;;;;;;4.33;100.00;96610.50;5010363;28;24424;-70
2022/04/28 01:33:23;;;;;;;6.97;5.35;;;;;;;4.30;100.00;96604.63;5010616;28;24412;-70
2022/04/28 01:35:49;;;;;;;6.13;5.53;;;;;;;4.33;100.00;96607.09;5010439;28;24437;-70
2022/04/28 01:38:17;;;;;;;7.80;6.03;;;;;;;4.08;100.00;96612.84;5010345;28;24983;-70
2022/04/28 01:40:44;;;;;;;8.68;6.63;;;;;;;3.96;100.00;96608.00;5010333;28;24433;-70
2022/04/28 01:43:11;;;;;;;10.82;6.53;;;;;;;3.98;100.00;96613.94;5009995;28;24416;-70
2022/04/28 01:45:37;;;;;;;8.07;6.68;;;;;;;3.96;100.00;96605.44;5010427;28;24428;-70
2022/04/28 01:48:04;;;;;;;7.75;6.97;;;;;;;4.00;100.00;96612.16;5010365;28;24957;-70
2022/04/28 01:50:31;;;;;;;6.93;6.22;;;;;;;3.89;100.00;96614.13;5010330;28;24427;-70
2022/04/28 01:55:42;;;;;;;6.90;6.25;;;;;;;3.91;100.00;96612.38;5013742;28;24423;-70
2022/04/28 01:58:09;;;;;;;10.25;6.25;;;;;;;3.93;100.00;96607.22;5014150;28;24420;-70
2022/04/28 02:00:36;;;;;;;7.80;6.32;;;;;;;3.97;100.00;96606.25;5013910;28;24440;-70
2022/04/28 02:03:02;;;;;;;8.65;7.13;;;;;;;4.01;100.00;96605.34;5013726;28;24413;-70
2022/04/28 02:05:29;;;;;;;9.63;6.55;;;;;;;4.08;100.00;96604.31;5013718;28;24427;-70
2022/04/28 02:07:55;;;;;;;10.38;6.90;;;;;;;4.12;100.00;96614.47;5013793;28;24424;-70
2022/04/28 02:10:22;;;;;;;7.57;6.55;;;;;;;4.16;100.00;96606.69;5013546;28;24838;-70
2022/04/28 02:12:50;;;;;;;8.23;7.13;;;;;;;4.23;100.00;96605.66;5013261;28;24953;-71
2022/04/28 02:15:16;;;;;;;9.27;6.47;;;;;;;4.22;100.00;96612.50;5013601;28;24587;-71
2022/04/28 02:17:43;;;;;;;6.60;6.00;;;;;;;4.22;100.00;96607.38;5013389;28;24420;-70
2022/04/28 02:20:11;;;;;;;8.35;6.43;;;;;;;4.27;100.00;96608.13;5013519;28;24458;-71
2022/04/28 02:22:38;;;;;;;8.05;6.53;;;;;;;4.28;100.00;96606.38;5013202;28;24938;-71
2022/04/28 02:25:05;;;;;;;7.28;5.95;;;;;;;4.19;100.00;96606.59;5013248;28;24408;-71
2022/04/28 02:27:32;;;;;;;6.68;5.88;;;;;;;4.09;100.00;96604.28;5013525;28;24420;-71
2022/04/28 02:30:00;;;;;;;6.93;5.97;;;;;;;3.88;100.00;96608.16;5013465;28;24420;-70
2022/04/28 02:33:08;;;;;;;6.30;5.70;;;;;;;3.82;100.00;96615.16;5013262;28;24523;-71
2022/04/28 02:35:13;;;;;;;10.07;6.63;;;;;;;3.83;100.00;96614.28;5013034;28;24483;-71
2022/04/28 02:37:39;;;;;;;9.57;7.80;;;;;;;3.91;100.00;96619.25;5013283;28;24777;-71
2022/04/28 02:40:07;;;;;;;9.77;7.38;;;;;;;3.80;100.00;96619.47;5012927;28;25008;-71
2022/04/28 02:42:34;;;;;;;10.20;6.93;;;;;;;3.64;100.00;96613.88;5012930;28;24419;-70
2022/04/28 02:45:01;;;;;;;8.47;6.83;;;;;;;3.56;100.00;96616.59;5012958;28;24514;-70
2022/04/28 02:47:28;;;;;;;8.02;7.03;;;;;;;3.61;100.00;96619.06;5013073;28;24428;-70
2022/04/28 02:49:54;;;;;;;7.80;7.00;;;;;;;3.67;100.00;96618.06;5012710;28;24972;-70
2022/04/28 02:52:21;;;;;;;7.50;6.50;;;;;;;3.77;100.00;96617.81;5012904;28;24474;-71
2022/04/28 02:54:47;;;;;;;7.32;6.63;;;;;;;3.71;100.00;96622.22;5012891;28;24424;-70
2022/04/28 02:57:14;;;;;;;7.45;6.68;;;;;;;3.61;100.00;96622.44;5012859;28;24530;-70
2022/04/28 02:59:40;;;;;;;7.07;6.38;;;;;;;3.61;100.00;96611.38;5012681;28;24416;-70
2022/04/28 03:02:08;;;;;;;6.97;6.28;;;;;;;3.58;100.00;96622.50;5011919;28;24413;-70
2022/04/28 03:04:34;;;;;;;7.57;6.78;;;;;;;3.61;100.00;96625.00;5012464;28;24475;-70
2022/04/28 03:12:29;;;;;;;8.38;7.32;;;;;;;3.66;100.00;96634.31;5012415;28;24417;-70
2022/04/28 03:14:56;;;;;;;10.48;6.85;;;;;;;3.53;100.00;96632.03;5012729;28;25003;-70
2022/04/28 03:17:23;;;;;;;6.55;5.95;;;;;;;3.47;100.00;96627.03;5012213;28;24435;-70
2022/04/28 03:19:50;;;;;;;8.32;7.40;;;;;;;3.55;100.00;96627.69;5012434;28;24420;-70
2022/04/28 03:22:16;;;;;;;9.32;7.03;;;;;;;3.58;100.00;96630.19;5012132;28;24420;-70
2022/04/28 03:24:42;;;;;;;9.30;7.38;;;;;;;3.51;100.00;96638.03;5012269;28;24423;-70
2022/04/28 03:27:09;;;;;;;8.65;7.10;;;;;;;3.42;100.00;96633.13;5012111;28;24478;-70
2022/04/28 03:29:37;;;;;;;9.02;7.78;;;;;;;3.44;100.00;96636.47;5011910;28;24424;-70
2022/04/28 03:32:04;;;;;;;10.18;7.40;;;;;;;3.38;100.00;96633.19;5012068;28;24527;-70
2022/04/28 03:34:32;;;;;;;8.20;7.15;;;;;;;3.35;100.00;96628.13;5012294;28;24526;-70
2022/04/28 03:36:59;;;;;;;8.10;7.30;;;;;;;3.33;100.00;96636.69;5011809;28;24976;-70
2022/04/28 03:39:25;;;;;;;11.40;7.47;;;;;;;3.33;100.00;96637.53;5012025;28;24420;-70
2022/04/28 03:41:51;;;;;;;11.07;7.25;;;;;;;3.39;100.00;96634.03;5011587;28;24502;-70
2022/04/28 03:44:18;;;;;;;12.80;7.80;;;;;;;3.40;100.00;96628.84;5012015;28;24436;-70
2022/04/28 03:46:44;;;;;;;12.00;8.10;;;;;;;3.38;100.00;96638.31;5011897;28;24451;-70
2022/04/28 03:49:11;;;;;;;9.15;7.78;;;;;;;3.36;100.00;96640.03;5011923;28;24424;-70
2022/04/28 03:51:39;;;;;;;10.23;7.97;;;;;;;3.37;100.00;96646.00;5011720;28;24425;-70
2022/04/28 03:54:06;;;;;;;10.02;7.30;;;;;;;3.32;100.00;96637.59;5011570;28;24432;-70
2022/04/28 03:56:33;;;;;;;8.32;7.30;;;;;;;3.34;100.00;96652.06;5011232;28;24420;-70
2022/04/28 03:59:01;;;;;;;9.20;6.70;;;;;;;3.31;100.00;96643.59;5011655;28;24428;-70
2022/04/28 04:01:28;;;;;;;7.55;6.72;;;;;;;3.31;100.00;96643.59;5011353;28;24447;-70
2022/04/28 04:03:54;;;;;;;7.82;6.53;;;;;;;3.30;100.00;96647.00;5011181;28;24428;-70
2022/04/28 04:06:21;;;;;;;8.18;6.53;;;;;;;3.37;100.00;96648.56;5010822;28;24472;-70
2022/04/28 04:08:49;;;;;;;7.03;6.32;;;;;;;3.44;100.00;96644.16;5011051;28;24423;-70
2022/04/28 04:11:16;;;;;;;7.47;6.43;;;;;;;3.28;100.00;96644.47;5011349;28;24964;-70
2022/04/28 04:13:42;;;;;;;10.13;6.97;;;;;;;3.29;100.00;96650.44;5010533;28;24427;-71
2022/04/28 04:16:10;;;;;;;9.45;6.78;;;;;;;3.24;100.00;96647.13;5011378;28;24424;-71
2022/04/28 04:18:36;;;;;;;7.65;6.85;;;;;;;3.25;100.00;96641.97;5011239;28;24424;-71
2022/04/28 04:21:03;;;;;;;7.13;6.43;;;;;;;3.15;100.00;96645.59;5011189;28;24974;-71
2022/04/28 04:23:29;;;;;;;8.60;6.80;;;;;;;3.02;100.00;96652.66;5010890;28;24958;-71
2022/04/28 04:25:57;;;;;;;9.23;6.40;;;;;;;2.96;100.00;96652.78;5010990;28;24431;-71
2022/04/28 04:28:24;;;;;;;6.95;6.25;;;;;;;2.92;100.00;96653.72;5010964;28;25029;-71
2022/04/28 04:33:35;;;;;;;8.02;6.68;;;;;;;3.00;100.00;96659.53;5010959;28;24407;-71
2022/04/28 04:36:01;;;;;;;8.73;7.05;;;;;;;3.08;100.00;96661.97;5010972;28;24957;-71
2022/04/28 04:38:28;;;;;;;10.15;7.38;;;;;;;3.18;100.00;96673.69;5010971;28;24431;-72
2022/04/28 04:40:54;;;;;;;8.27;7.38;;;;;;;3.07;100.00;96673.06;5010973;28;24440;-72
2022/04/28 04:43:22;;;;;;;7.90;7.10;;;;;;;3.08;100.00;96670.47;5010688;28;24790;-71
2022/04/28 04:45:48;;;;;;;8.77;6.80;;;;;;;3.13;100.00;96678.06;5010834;28;24420;-72
2022/04/28 04:48:15;;;;;;;7.10;6.30;;;;;;;3.19;100.00;96677.97;5011026;28;24420;-71
2022/04/28 04:50:42;;;;;;;9.00;7.03;;;;;;;3.32;100.00;96678.53;5010701;28;24535;-71
2022/04/28 04:53:08;;;;;;;7.78;6.63;;;;;;;3.43;100.00;96681.75;5010857;28;24821;-71
2022/04/28 04:55:36;;;;;;;7.53;6.80;;;;;;;3.50;100.00;96680.75;5010507;28;24846;-71
2022/04/28 04:58:03;;;;;;;9.02;7.00;;;;;;;3.61;100.00;96690.78;5010925;28;24416;-71
2022/04/28 05:00:31;;;;;;;8.93;7.13;;;;;;;3.70;100.00;96690.56;5010905;28;24444;-71
2022/04/28 05:02:57;;;;;;;9.77;7.25;;;;;;;3.78;100.00;96692.97;5010527;28;24869;-71
2022/04/28 05:05:23;;;;;;;8.98;6.75;;;;;;;3.80;100.00;96691.22;5010100;28;24957;-70
2022/04/28 05:07:50;;;;;;;8.07;6.72;;;;;;;3.86;100.00;96697.06;5010771;28;24417;-69
2022/04/28 05:10:16;;;;;;;7.55;6.80;;;;;;;3.88;100.00;96699.59;5010702;28;24786;-69
2022/04/28 05:12:43;;;;;;;8.80;6.53;;;;;;;3.94;100.00;96706.31;5010405;28;24784;-70
2022/04/28 05:15:09;;;;;;;12.50;6.95;;;;;;;4.04;100.00;96707.78;5010484;28;24408;-69
2022/04/28 05:17:38;;;;;;;7.57;6.43;;;;;;;4.19;100.00;96712.59;5010314;28;24439;-70
2022/04/28 05:20:06;;;;;;;10.52;7.45;;;;;;;4.33;100.00;96718.22;5010338;28;24527;-69
2022/04/28 05:22:33;;;;;;;8.82;7.47;;;;;;;4.46;100.00;96718.78;5010556;28;24440;-70
2022/04/28 05:24:59;;;;;;;9.98;7.93;;;;;;;4.51;100.00;96716.94;5011373;28;24416;-69
2022/04/28 05:27:26;;;;;;;9.57;8.38;;;;;;;4.68;100.00;96724.25;5014441;28;24424;-70
2022/04/28 05:29:53;;;;;;;12.85;8.80;;;;;;;4.83;100.00;96723.88;5014506;28;24420;-69
2022/04/28 05:32:19;;;;;;;9.60;8.20;;;;;;;4.81;100.00;96727.34;5014190;28;24467;-67
2022/04/28 05:34:47;;;;;;;8.63;7.72;;;;;;;4.76;100.00;96734.34;5013302;28;24837;-70
2022/04/28 05:37:14;;;;;;;12.48;7.65;;;;;;;4.87;100.00;96724.66;5010403;28;24455;-70
2022/04/28 05:39:42;;;;;;;9.00;7.45;;;;;;;5.05;100.00;96731.03;5008844;28;24432;-70
2022/04/28 05:42:09;;;;;;;8.63;7.63;;;;;;;5.16;100.00;96729.03;5013573;28;24499;-70
2022/04/28 05:47:28;;;;;;;9.13;7.97;;;;;;;5.44;100.00;96736.00;5000685;28;24490;-67
2022/04/28 05:49:56;;;;;;;8.57;7.68;;;;;;;5.38;100.00;96737.03;5013107;28;24447;-70
2022/04/28 05:52:23;;;;;;;8.48;7.40;;;;;;;5.44;100.00;96741.97;5013179;28;24482;-69
2022/04/28 05:54:49;;;;;;;8.23;7.40;;;;;;;5.64;100.00;96743.19;5012858;28;24440;-69
2022/04/28 05:57:16;;;;;;;11.25;8.15;;;;;;;5.84;100.00;96746.03;5013478;28;24519;-69
2022/04/28 05:59:43;;;;;;;20.25;11.15;;;;;;;6.15;100.00;96753.72;5013483;28;24535;-69
2022/04/28 06:02:09;;;;;;;47.92;12.43;;;;;;;6.36;100.00;96748.81;5013585;28;24456;-69
2022/04/28 06:04:36;;;;;;;36.55;14.20;;;;;;;6.59;100.00;96748.94;5013757;28;24420;-69
2022/04/28 06:07:05;;;;;;;42.55;14.50;;;;;;;6.66;100.00;96749.59;5013198;28;24970;-70
2022/04/28 06:09:32;;;;;;;35.80;13.65;;;;;;;6.76;100.00;96753.56;5013378;28;24427;-69
2022/04/28 06:11:58;;;;;;;27.10;12.43;;;;;;;6.91;100.00;96754.81;5012537;28;24457;-69
2022/04/28 06:14:25;;;;;;;19.60;11.00;;;;;;;6.82;100.00;96757.66;5013039;28;24536;-69
2022/04/28 06:16:51;;;;;;;13.15;9.98;;;;;;;6.91;100.00;96758.22;5012746;28;24444;-69
2022/04/28 06:19:19;;;;;;;12.02;9.55;;;;;;;6.91;100.00;96768.53;5013231;28;24478;-69
2022/04/28 06:21:46;;;;;;;9.52;8.52;;;;;;;7.08;100.00;96756.81;5012688;28;25097;-69
2022/04/28 06:24:14;;;;;;;10.38;9.25;;;;;;;7.07;100.00;96752.56;5013566;28;24529;-69
2022/04/28 06:26:40;;;;;;;12.98;8.38;;;;;;;7.13;100.00;96758.38;5012022;28;24486;-73
2022/04/28 06:29:06;;;;;;;9.37;8.47;;;;;;;7.17;100.00;96757.38;5012927;28;24896;-71
2022/04/28 06:31:34;;;;;;;9.25;7.80;;;;;;;7.30;100.00;96756.94;5012507;28;24439;-69
2022/04/28 06:34:00;;;;;;;11.53;8.77;;;;;;;7.56;100.00;96759.47;5013220;28;24985;-69
2022/04/28 06:36:27;;;;;;;9.48;8.57;;;;;;;7.64;100.00;96756.59;5010166;28;24487;-70
2022/04/28 06:38:53;;;;;;;11.32;8.73;;;;;;;7.78;100.00;96754.38;5011758;28;24436;-69
2022/04/28 06:41:21;;;;;;;13.05;8.68;;;;;;;7.86;100.00;96756.69;5012290;28;25055;-70
2022/04/28 06:43:47;;;;;;;9.90;8.90;;;;;;;7.96;100.00;96766.63;5011484;28;20786;-69
2022/04/28 06:46:14;;;;;;;11.25;8.77;;;;;;;8.12;100.00;96759.16;5012076;28;20836;-69
2022/04/28 06:48:41;;;;;;;10.82;8.25;;;;;;;8.36;100.00;96761.72;4998545;28;21347;-69
2022/04/28 06:51:07;;;;;;;10.45;8.05;;;;;;;8.66;100.00;96764.88;4973002;28;24492;-69
2022/04/28 06:53:34;;;;;;;9.13;8.23;;;;;;;8.98;100.00;96763.59;4972401;28;24482;-69
2022/04/28 06:56:00;;;;;;;9.00;7.65;;;;;;;9.00;100.00;96766.13;4973046;28;24586;-70
2022/04/28 06:58:28;;;;;;;11.00;8.43;;;;;;;9.06;100.00;96771.88;4973039;28;24441;-70
2022/04/28 07:00:55;;;;;;;10.02;8.50;;;;;;;9.15;100.00;96773.25;4972769;28;20782;-70
2022/04/28 07:03:21;;;;;;;9.73;8.82;;;;;;;9.40;100.00;96765.31;4972117;28;24440;-70
2022/04/28 07:05:48;;;;;;;10.10;8.55;;;;;;;9.39;100.00;96768.81;4972258;28;24464;-70
2022/04/28 07:08:14;;;;;;;9.95;8.95;;;;;;;9.51;100.00;96775.19;4970437;28;24445;-69
2022/04/28 07:10:41;;;;;;;11.43;7.90;;;;;;;9.54;100.00;96778.50;4972856;28;24666;-69
2022/04/28 07:13:07;;;;;;;10.85;9.00;;;;;;;9.94;100.00;96776.78;4971899;28;24565;-71
2022/04/28 07:15:38;;;;;;;9.30;7.88;;;;;;;10.04;100.00;96780.63;4972670;28;24488;-70
2022/04/28 07:18:06;;;;;;;8.32;7.28;;;;;;;10.05;100.00;96774.56;4972835;28;24445;-69
2022/04/28 07:20:32;;;;;;;8.45;7.65;;;;;;;10.58;100.00;96779.06;4972539;28;25041;-69
2022/04/28 07:23:00;;;;;;;15.82;7.63;;;;;;;11.39;100.00;96774.31;4972312;28;24460;-70
2022/04/28 07:25:26;;;;;;;7.05;5.65;;;;;;;12.15;88.21;96785.09;4972685;28;24477;-69
2022/04/28 07:27:53;;;;;;;10.98;5.22;;;;;;;12.47;89.97;96788.59;4972450;28;24488;-69
2022/04/28 07:30:20;;;;;;;8.07;5.28;;;;;;;12.64;86.31;96792.03;4972307;28;24441;-69
2022/04/28 07:32:48;;;;;;;20.83;6.73;;;;;;;12.76;80.91;96792.22;4977952;28;24444;-71
2022/04/28 07:35:15;;;;;;;7.30;5.55;;;;;;;12.57;80.76;96788.94;4972421;28;24998;-69
2022/04/28 07:37:41;;;;;;;5.22;4.72;;;;;;;12.43;79.53;96796.66;4972694;28;20785;-70
2022/04/28 07:40:09;;;;;;;6.80;5.55;;;;;;;12.43;78.48;96789.69;4972818;28;24434;-70
2022/04/28 07:42:36;;;;;;;10.65;5.43;;;;;;;12.67;80.48;96794.47;4972185;28;24465;-69
2022/04/28 07:45:03;;;;;;;5.20;4.70;;;;;;;12.77;77.40;96791.28;4972143;28;24854;-70
2022/04/28 07:47:29;;;;;;;5.57;5.03;;;;;;;12.70;74.61;96791.69;4969004;28;24433;-70
2022/04/28 07:49:57;;;;;;;6.60;5.70;;;;;;;12.66;81.00;96796.22;4972204;28;24441;-70
2022/04/28 07:52:24;;;;;;;6.30;5.15;;;;;;;12.65;81.09;96798.91;4972726;28;20778;-69
2022/04/28 07:54:50;;;;;;;6.38;5.18;;;;;;;13.03;83.88;96796.78;4972684;28;20789;-70
2022/04/28 07:57:18;;;;;;;7.30;4.90;;;;;;;13.07;77.00;96798.28;4972566;28;25005;-70
2022/04/28 07:59:44;;;;;;;6.40;5.20;;;;;;;13.18;75.76;96800.28;4972221;28;21461;-68
2022/04/28 08:02:11;;;;;;;5.07;4.57;;;;;;;12.99;76.97;96803.94;4971641;28;25019;-70
2022/04/28 08:04:38;;;;;;;7.43;4.95;;;;;;;12.87;69.58;96809.81;4971811;28;24868;-70
2022/04/28 08:07:06;;;;;;;6.85;4.45;;;;;;;13.13;71.73;96808.34;4972515;28;24428;-69
2022/04/28 08:09:33;;;;;;;6.10;4.75;;;;;;;13.36;74.56;96812.28;4972551;28;24417;-69
2022/04/28 08:12:00;;;;;;;6.10;4.80;;;;;;;13.57;68.84;96818.00;4972287;28;24492;-69
2022/04/28 08:14:27;;;;;;;6.00;4.20;;;;;;;13.72;70.77;96816.25;4972456;28;24425;-69
2022/04/28 08:16:54;;;;;;;4.68;3.90;;;;;;;13.36;66.99;96817.47;4971929;28;24433;-70
2022/04/28 08:19:21;;;;;;;4.95;4.07;;;;;;;13.41;64.61;96818.03;4972351;28;24881;-71
2022/04/28 08:21:47;;;;;;;4.15;3.75;;;;;;;13.52;72.39;96814.84;4972231;28;24526;-72
2022/04/28 08:24:16;;;;;;;4.82;3.92;;;;;;;13.54;65.42;96818.19;4972516;28;24433;-70
2022/04/28 08:26:42;;;;;;;4.93;4.38;;;;;;;13.70;68.53;96818.13;4971807;28;24520;-71
2022/04/28 08:29:10;;;;;;;7.47;3.90;;;;;;;13.96;68.39;96812.22;4972121;28;24426;-71
2022/04/28 08:31:43;;;;;;;3.92;3.47;;;;;;;14.20;64.46;96817.75;4971623;28;24425;-71
2022/04/28 08:34:10;;;;;;;4.93;3.60;;;;;;;14.43;66.56;96816.34;4972805;28;24469;-71
2022/04/28 08:36:36;;;;;;;7.65;3.85;;;;;;;14.26;65.96;96819.94;4972095;28;24997;-71
2022/04/28 08:39:03;;;;;;;3.88;3.47;;;;;;;14.15;63.69;96819.75;4972268;28;24947;-72
2022/04/28 08:41:33;;;;;;;7.45;3.92;;;;;;;14.18;67.05;96823.97;4971996;28;24422;-71
2022/04/28 08:44:01;;;;;;;6.22;3.90;;;;;;;14.08;60.94;96813.25;4971988;28;24993;-72
2022/04/28 08:49:14;;;;;;;6.20;3.90;;;;;;;14.13;60.76;96820.81;4972107;28;24555;-71
2022/04/28 08:51:43;;;;;;;4.47;3.60;;;;;;;14.22;60.23;96831.50;4971751;28;24823;-71
2022/04/28 08:54:10;;;;;;;3.45;3.15;;;;;;;14.40;57.03;96833.94;4971951;28;24472;-71
2022/04/28 08:56:39;;;;;;;8.60;3.75;;;;;;;14.50;61.41;96822.88;4971447;28;24432;-72
2022/04/28 08:59:06;;;;;;;4.60;3.70;;;;;;;14.77;68.20;96832.53;4972114;28;24424;-71
2022/04/28 09:01:33;;;;;;;5.97;3.67;;;;;;;14.67;57.41;96828.81;4971620;28;24653;-70
2022/04/28 09:04:02;;;;;;;5.20;3.65;;;;;;;14.70;58.26;96826.84;4971884;28;24429;-70
2022/04/28 09:06:30;;;;;;;4.15;3.30;;;;;;;14.96;62.82;96832.19;4972094;28;24424;-72
2022/04/28 09:08:57;;;;;;;12.30;4.35;;;;;;;14.94;59.68;96834.03;4971779;28;24460;-70
2022/04/28 09:11:27;;;;;;;4.23;3.30;;;;;;;15.10;58.92;96831.31;4971622;28;24981;-70
2022/04/28 09:14:13;;;;;;;4.45;3.50;;;;;;;15.27;60.05;96823.22;4971833;28;24425;-72
2022/04/28 09:16:43;;;;;;;5.85;3.63;;;;;;;15.06;56.05;96827.25;4971981;28;24511;-71
2022/04/28 09:19:10;;;;;;;4.50;2.90;;;;;;;15.21;58.29;96828.84;4971833;28;24430;-71
2022/04/28 09:21:37;;;;;;;3.97;3.20;;;;;;;15.07;59.05;96829.72;4971511;28;24421;-71
2022/04/28 09:24:05;;;;;;;5.18;2.97;;;;;;;15.20;56.59;96832.38;4972239;28;24433;-70
2022/04/28 09:26:33;;;;;;;4.72;3.08;;;;;;;14.86;54.64;96837.13;4971951;28;24515;-73
2022/04/28 09:29:06;;;;;;;3.70;3.15;;;;;;;14.95;53.36;96831.34;4972090;28;24452;-72
2022/04/28 09:31:35;;;;;;;3.67;3.15;;;;;;;15.19;50.49;96828.09;4971978;28;24428;-71
2022/04/28 09:34:05;;;;;;;5.45;3.03;;;;;;;15.23;53.25;96826.97;4971899;28;24513;-70
2022/04/28 09:36:31;;;;;;;5.38;2.92;;;;;;;15.01;49.95;96825.72;4971876;28;24488;-72
2022/04/28 09:38:58;;;;;;;3.65;2.83;;;;;;;15.19;52.31;96820.28;4972206;28;24452;-71
2022/04/28 09:44:12;;;;;;;3.72;3.20;;;;;;;15.11;52.63;96831.22;4986359;28;25008;-72
2022/04/28 09:46:41;;;;;;;3.05;2.72;;;;;;;15.45;49.05;96829.03;4990966;28;24468;-71
2022/04/28 09:49:09;;;;;;;3.00;2.70;;;;;;;15.61;45.73;96823.63;4991465;28;24449;-73
2022/04/28 09:51:38;;;;;;;3.72;2.65;;;;;;;15.64;48.47;96821.66;4990987;28;24448;-71
2022/04/28 09:54:10;;;;;;;4.85;2.60;;;;;;;15.82;44.57;96819.63;4991185;28;24428;-71
2022/04/28 09:56:37;;;;;;;5.30;2.70;;;;;;;16.01;45.34;96823.63;4990899;28;24975;-71
2022/04/28 09:59:05;;;;;;;3.20;2.42;;;;;;;15.94;43.58;96826.66;4990913;28;24950;-71
2022/04/28 10:01:34;;;;;;;5.78;2.65;;;;;;;15.56;41.42;96826.53;4991033;28;25090;-71
2022/04/28 10:04:01;;;;;;;4.30;2.42;;;;;;;15.55;46.00;96824.88;4990829;28;24452;-71
2022/04/28 10:06:34;;;;;;;6.00;2.90;;;;;;;15.59;47.96;96826.34;4990663;28;24496;-73
2022/04/28 10:09:04;;;;;;;7.05;2.90;;;;;;;15.70;45.04;96828.28;4990736;28;24428;-72
2022/04/28 10:11:31;;;;;;;3.63;2.60;;;;;;;15.75;43.90;96827.97;4990470;28;24420;-72
2022/04/28 10:13:59;;;;;;;4.95;2.65;;;;;;;15.48;44.69;96821.00;4993694;28;24967;-72
2022/04/28 10:16:26;;;;;;;3.70;2.60;;;;;;;15.23;43.25;96819.16;4994006;28;24524;-72
2022/04/28 10:19:01;;;;;;;5.25;3.13;;;;;;;15.35;46.95;96830.56;4993996;28;24469;-71
2022/04/28 10:21:33;;;;;;;4.18;3.08;;;;;;;15.31;44.31;96827.31;4994071;28;24516;-72
2022/04/28 10:32:53;;;;;;;5.18;2.97;;;;;;;16.18;51.31;96800.63;4993657;28;24989;-72
2022/04/28 10:35:36;;;;;;;3.70;3.10;;;;;;;16.44;47.22;96809.28;4993648;28;24421;-72
2022/04/28 10:38:09;;;;;;;4.85;3.28;;;;;;;16.13;48.69;96805.34;4993769;28;24421;-72
2022/04/28 10:40:40;;;;;;;4.03;3.00;;;;;;;16.26;50.95;96815.78;4993512;28;24452;-72
2022/04/28 10:43:24;;;;;;;5.07;3.33;;;;;;;16.41;51.03;96812.09;4993416;28;24448;-73
2022/04/28 10:45:51;;;;;;;3.60;2.67;;;;;;;16.69;48.42;96804.94;4993412;28;24965;-73
2022/04/28 10:48:29;;;;;;;5.32;2.80;;;;;;;16.35;44.00;96811.69;4993351;28;24445;-71
2022/04/28 10:51:18;;;;;;;4.68;3.17;;;;;;;16.23;51.28;96817.75;4993307;28;24425;-71
2022/04/28 10:54:07;;;;;;;4.05;2.80;;;;;;;16.30;40.79;96817.22;4993187;28;24417;-72
2022/04/28 10:56:56;;;;;;;4.18;2.92;;;;;;;16.41;49.01;96808.66;4993155;28;24429;-72
2022/04/28 10:59:37;;;;;;;5.43;3.58;;;;;;;16.08;45.44;96811.81;4993087;28;24424;-71
2022/04/28 11:02:49;;;;;;;3.47;2.83;;;;;;;16.14;43.14;96812.22;4993196;28;24798;-70
2022/04/28 11:05:42;;;;;;;5.15;2.85;;;;;;;16.49;46.35;96824.63;4993194;28;24520;-70
2022/04/28 11:08:37;;;;;;;4.30;2.85;;;;;;;16.73;48.39;96819.47;4944771;28;24541;-71
2022/04/28 11:11:12;;;;;;;5.05;2.90;;;;;;;16.75;43.11;96817.59;4932506;28;24446;-70
2022/04/28 11:13:43;;;;;;;4.43;2.80;;;;;;;16.71;42.59;96818.72;4953931;28;24429;-71
2022/04/28 11:16:11;;;;;;;5.93;3.25;;;;;;;16.53;42.71;96813.00;4954020;28;24437;-70
2022/04/28 11:18:38;;;;;;;6.47;3.22;;;;;;;16.74;40.80;96822.94;4954331;29;24429;-70
2022/04/28 11:21:06;;;;;;;4.70;2.67;;;;;;;16.73;42.94;96816.03;4954330;29;24781;-71
2022/04/28 11:23:34;;;;;;;5.95;2.92;;;;;;;16.65;42.13;96820.00;4959747;28;24457;-71
2022/04/28 11:26:03;;;;;;;4.15;2.53;;;;;;;16.80;44.19;96810.28;4973184;28;24432;-72
2022/04/28 11:28:30;;;;;;;2.95;2.65;;;;;;;16.81;53.14;96811.94;4973231;28;24521;-71
2022/04/28 11:30:57;;;;;;;5.15;3.35;;;;;;;16.46;47.50;96814.38;4982791;28;24453;-72
2022/04/28 11:33:23;;;;;;;4.40;3.00;;;;;;;16.57;48.62;96809.22;4991695;28;25090;-72
2022/04/28 11:35:50;;;;;;;6.03;2.92;;;;;;;16.60;53.47;96811.63;4991742;28;24425;-72
2022/04/28 11:38:27;;;;;;;4.80;3.00;;;;;;;16.65;47.39;96816.56;4992470;28;25026;-72
2022/04/28 11:41:04;;;;;;;3.60;3.00;;;;;;;16.70;51.71;96814.44;4992742;28;24420;-71
2022/04/28 11:43:32;;;;;;;5.57;3.08;;;;;;;16.48;46.38;96803.84;4992365;28;24451;-72
2022/04/28 11:46:00;;;;;;;5.53;3.15;;;;;;;16.58;51.56;96810.94;4992334;28;24436;-72
2022/04/28 11:48:29;;;;;;;4.90;2.83;;;;;;;16.67;52.22;96804.19;4991875;28;21301;-71
2022/04/28 11:51:02;;;;;;;4.43;3.10;;;;;;;16.44;46.51;96806.66;4992220;28;24875;-71
2022/04/28 11:53:39;;;;;;;8.52;3.20;;;;;;;16.56;43.10;96809.34;4991987;28;24480;-72
2022/04/28 11:56:19;;;;;;;5.47;3.17;;;;;;;16.67;54.58;96810.25;4992252;28;24425;-72
2022/04/28 11:58:50;;;;;;;6.20;3.33;;;;;;;16.45;44.36;96802.25;4992281;28;24427;-72
2022/04/28 12:01:17;;;;;;;5.50;2.95;;;;;;;16.25;47.66;96803.66;4992127;28;24800;-72
2022/04/28 12:03:54;;;;;;;4.20;2.83;;;;;;;16.21;46.62;96803.03;4991824;28;24823;-72
2022/04/28 12:06:22;;;;;;;3.90;2.80;;;;;;;16.65;44.00;96806.94;4991731;28;24424;-72
2022/04/28 12:08:52;;;;;;;4.47;2.70;;;;;;;16.80;53.05;96807.66;4992109;28;24427;-72